sensor_id;sensor_type;location;lat;lon;timestamp;temperature;humidity
516;DHT22;244;48.508;9.052;2023-03-21T00:01:16;10.30;10.60
516;DHT22;244;48.508;9.052;2023-03-21T00:03:43;10.30;10.70
516;DHT22;244;48.508;9.052;2023-03-21T00:06:12;10.30;10.60
516;DHT22;244;48.508;9.052;2023-03-21T00:08:39;10.30;10.60
516;DHT22;244;48.508;9.052;2023-03-21T00:11:09;10.30;10.60
516;DHT22;244;48.508;9.052;2023-03-21T00:13:36;10.30;10.70
516;DHT22;244;48.508;9.052;2023-03-21T00:16:09;10.30;10.80
516;DHT22;244;48.508;9.052;2023-03-21T00:18:40;10.40;11.00
516;DHT22;244;48.508;9.052;2023-03-21T00:21:09;10.40;11.00
516;DHT22;244;48.508;9.052;2023-03-21T00:23:36;10.40;11.10
516;DHT22;244;48.508;9.052;2023-03-21T00:26:04;10.40;11.10
516;DHT22;244;48.508;9.052;2023-03-21T00:28:32;10.40;11.10
516;DHT22;244;48.508;9.052;2023-03-21T00:31:00;10.40;11.10
516;DHT22;244;48.508;9.052;2023-03-21T00:33:27;10.40;11.10
516;DHT22;244;48.508;9.052;2023-03-21T00:35:54;10.40;11.10
516;DHT22;244;48.508;9.052;2023-03-21T00:38:22;10.40;11.20
516;DHT22;244;48.508;9.052;2023-03-21T00:40:50;10.40;11.20
516;DHT22;244;48.508;9.052;2023-03-21T00:43:17;10.40;11.20
516;DHT22;244;48.508;9.052;2023-03-21T00:45:50;10.40;11.30
516;DHT22;244;48.508;9.052;2023-03-21T00:48:17;10.40;11.40
516;DHT22;244;48.508;9.052;2023-03-21T00:50:45;10.40;11.40
516;DHT22;244;48.508;9.052;2023-03-21T00:53:13;10.50;11.60
516;DHT22;244;48.508;9.052;2023-03-21T00:55:40;10.40;11.60
516;DHT22;244;48.508;9.052;2023-03-21T00:58:07;10.50;11.70
516;DHT22;244;48.508;9.052;2023-03-21T01:00:34;10.50;11.70
516;DHT22;244;48.508;9.052;2023-03-21T01:03:04;10.50;11.70
516;DHT22;244;48.508;9.052;2023-03-21T01:05:33;10.50;11.70
516;DHT22;244;48.508;9.052;2023-03-21T01:08:19;10.50;11.70
516;DHT22;244;48.508;9.052;2023-03-21T01:10:47;10.50;11.70
516;DHT22;244;48.508;9.052;2023-03-21T01:13:17;10.60;11.70
516;DHT22;244;48.508;9.052;2023-03-21T01:15:45;10.60;12.30
516;DHT22;244;48.508;9.052;2023-03-21T01:18:16;10.60;11.70
516;DHT22;244;48.508;9.052;2023-03-21T01:20:43;10.60;11.70
516;DHT22;244;48.508;9.052;2023-03-21T01:23:12;10.60;11.70
516;DHT22;244;48.508;9.052;2023-03-21T01:25:40;10.70;11.80
516;DHT22;244;48.508;9.052;2023-03-21T01:28:07;10.70;11.80
516;DHT22;244;48.508;9.052;2023-03-21T01:30:34;10.70;11.80
516;DHT22;244;48.508;9.052;2023-03-21T01:33:01;10.60;11.80
516;DHT22;244;48.508;9.052;2023-03-21T01:35:29;10.60;11.70
516;DHT22;244;48.508;9.052;2023-03-21T01:37:56;10.60;11.70
516;DHT22;244;48.508;9.052;2023-03-21T01:40:25;10.60;11.70
516;DHT22;244;48.508;9.052;2023-03-21T01:42:52;10.60;11.70
516;DHT22;244;48.508;9.052;2023-03-21T01:48:24;10.60;11.80
516;DHT22;244;48.508;9.052;2023-03-21T01:50:54;10.60;11.70
516;DHT22;244;48.508;9.052;2023-03-21T01:53:24;10.50;11.70
516;DHT22;244;48.508;9.052;2023-03-21T01:55:56;10.50;11.80
516;DHT22;244;48.508;9.052;2023-03-21T01:58:23;10.50;11.90
516;DHT22;244;48.508;9.052;2023-03-21T02:00:51;10.50;11.90
516;DHT22;244;48.508;9.052;2023-03-21T02:03:18;10.50;12.60
516;DHT22;244;48.508;9.052;2023-03-21T02:05:51;10.50;12.10
516;DHT22;244;48.508;9.052;2023-03-21T02:08:21;10.50;12.10
516;DHT22;244;48.508;9.052;2023-03-21T02:10:49;10.50;12.10
516;DHT22;244;48.508;9.052;2023-03-21T02:13:17;10.50;12.10
516;DHT22;244;48.508;9.052;2023-03-21T02:15:48;10.50;12.20
516;DHT22;244;48.508;9.052;2023-03-21T02:18:25;10.50;12.10
516;DHT22;244;48.508;9.052;2023-03-21T02:21:35;10.60;12.20
516;DHT22;244;48.508;9.052;2023-03-21T02:24:35;10.60;12.20
516;DHT22;244;48.508;9.052;2023-03-21T02:27:15;10.60;12.30
516;DHT22;244;48.508;9.052;2023-03-21T02:30:27;10.60;12.30
516;DHT22;244;48.508;9.052;2023-03-21T02:36:25;10.60;12.30
516;DHT22;244;48.508;9.052;2023-03-21T02:39:01;10.60;13.00
516;DHT22;244;48.508;9.052;2023-03-21T02:41:37;10.60;12.40
516;DHT22;244;48.508;9.052;2023-03-21T02:44:13;10.50;12.30
516;DHT22;244;48.508;9.052;2023-03-21T02:46:45;10.50;12.30
516;DHT22;244;48.508;9.052;2023-03-21T02:49:18;10.50;12.40
516;DHT22;244;48.508;9.052;2023-03-21T02:51:48;10.40;12.30
516;DHT22;244;48.508;9.052;2023-03-21T02:54:20;10.40;12.50
516;DHT22;244;48.508;9.052;2023-03-21T02:56:50;10.40;12.50
516;DHT22;244;48.508;9.052;2023-03-21T02:59:20;10.40;12.70
516;DHT22;244;48.508;9.052;2023-03-21T03:01:49;10.40;12.70
516;DHT22;244;48.508;9.052;2023-03-21T03:04:18;10.40;12.70
516;DHT22;244;48.508;9.052;2023-03-21T03:06:54;10.40;12.70
516;DHT22;244;48.508;9.052;2023-03-21T03:09:32;10.40;12.70
516;DHT22;244;48.508;9.052;2023-03-21T03:12:09;10.30;12.70
516;DHT22;244;48.508;9.052;2023-03-21T03:14:47;10.30;12.70
516;DHT22;244;48.508;9.052;2023-03-21T03:17:30;10.30;12.80
516;DHT22;244;48.508;9.052;2023-03-21T03:20:19;10.30;12.80
516;DHT22;244;48.508;9.052;2023-03-21T03:22:53;10.30;12.80
516;DHT22;244;48.508;9.052;2023-03-21T03:25:27;10.30;12.90
516;DHT22;244;48.508;9.052;2023-03-21T03:27:57;10.30;12.90
516;DHT22;244;48.508;9.052;2023-03-21T03:30:26;10.30;12.90
516;DHT22;244;48.508;9.052;2023-03-21T03:32:57;10.20;12.90
516;DHT22;244;48.508;9.052;2023-03-21T03:35:27;10.20;13.00
516;DHT22;244;48.508;9.052;2023-03-21T03:37:56;10.20;13.00
516;DHT22;244;48.508;9.052;2023-03-21T03:40:28;10.10;13.10
516;DHT22;244;48.508;9.052;2023-03-21T03:42:59;10.00;13.10
516;DHT22;244;48.508;9.052;2023-03-21T03:45:33;10.00;13.20
516;DHT22;244;48.508;9.052;2023-03-21T03:48:04;9.90;14.00
516;DHT22;244;48.508;9.052;2023-03-21T03:50:37;9.80;14.10
516;DHT22;244;48.508;9.052;2023-03-21T03:53:12;9.80;14.20
516;DHT22;244;48.508;9.052;2023-03-21T03:55:44;9.70;14.30
516;DHT22;244;48.508;9.052;2023-03-21T03:58:12;9.60;14.30
516;DHT22;244;48.508;9.052;2023-03-21T04:00:43;9.50;14.30
516;DHT22;244;48.508;9.052;2023-03-21T04:03:10;9.40;14.40
516;DHT22;244;48.508;9.052;2023-03-21T04:05:37;9.40;14.60
516;DHT22;244;48.508;9.052;2023-03-21T04:08:04;9.30;14.60
516;DHT22;244;48.508;9.052;2023-03-21T04:10:31;9.20;14.60
516;DHT22;244;48.508;9.052;2023-03-21T04:13:00;9.20;14.80
516;DHT22;244;48.508;9.052;2023-03-21T04:15:26;9.10;15.10
516;DHT22;244;48.508;9.052;2023-03-21T04:17:53;9.10;15.00
516;DHT22;244;48.508;9.052;2023-03-21T04:20:21;9.00;14.90
516;DHT22;244;48.508;9.052;2023-03-21T04:22:47;9.00;14.90
516;DHT22;244;48.508;9.052;2023-03-21T04:25:15;9.00;14.90
516;DHT22;244;48.508;9.052;2023-03-21T04:27:42;8.90;14.90
516;DHT22;244;48.508;9.052;2023-03-21T04:30:13;8.80;14.80
516;DHT22;244;48.508;9.052;2023-03-21T04:32:41;8.80;14.90
516;DHT22;244;48.508;9.052;2023-03-21T04:35:09;8.80;14.90
516;DHT22;244;48.508;9.052;2023-03-21T04:37:36;8.70;14.80
516;DHT22;244;48.508;9.052;2023-03-21T04:40:05;8.60;14.70
516;DHT22;244;48.508;9.052;2023-03-21T04:42:33;8.60;14.90
516;DHT22;244;48.508;9.052;2023-03-21T04:45:00;8.50;15.00
516;DHT22;244;48.508;9.052;2023-03-21T04:47:29;8.50;15.10
516;DHT22;244;48.508;9.052;2023-03-21T04:49:56;8.50;15.20
516;DHT22;244;48.508;9.052;2023-03-21T04:52:23;8.50;15.30
516;DHT22;244;48.508;9.052;2023-03-21T04:54:49;8.50;15.30
516;DHT22;244;48.508;9.052;2023-03-21T04:57:16;8.50;15.40
516;DHT22;244;48.508;9.052;2023-03-21T04:59:43;8.40;16.00
516;DHT22;244;48.508;9.052;2023-03-21T05:02:11;8.40;15.40
516;DHT22;244;48.508;9.052;2023-03-21T05:04:40;8.40;15.40
516;DHT22;244;48.508;9.052;2023-03-21T05:07:07;8.50;15.50
516;DHT22;244;48.508;9.052;2023-03-21T05:09:34;8.50;15.40
516;DHT22;244;48.508;9.052;2023-03-21T05:12:01;8.50;15.30
516;DHT22;244;48.508;9.052;2023-03-21T05:14:28;8.60;15.40
516;DHT22;244;48.508;9.052;2023-03-21T05:16:55;8.60;15.30
516;DHT22;244;48.508;9.052;2023-03-21T05:19:24;8.60;15.40
516;DHT22;244;48.508;9.052;2023-03-21T05:22:01;8.60;15.30
516;DHT22;244;48.508;9.052;2023-03-21T05:24:29;8.60;15.30
516;DHT22;244;48.508;9.052;2023-03-21T05:26:57;8.60;15.20
516;DHT22;244;48.508;9.052;2023-03-21T05:29:27;8.60;15.30
516;DHT22;244;48.508;9.052;2023-03-21T05:31:54;8.60;15.30
516;DHT22;244;48.508;9.052;2023-03-21T05:34:21;8.60;15.40
516;DHT22;244;48.508;9.052;2023-03-21T05:36:49;8.60;15.40
516;DHT22;244;48.508;9.052;2023-03-21T05:39:17;8.60;15.40
516;DHT22;244;48.508;9.052;2023-03-21T05:41:44;8.60;15.50
516;DHT22;244;48.508;9.052;2023-03-21T05:44:11;8.60;15.50
516;DHT22;244;48.508;9.052;2023-03-21T05:46:39;8.60;15.50
516;DHT22;244;48.508;9.052;2023-03-21T05:49:09;8.60;15.50
516;DHT22;244;48.508;9.052;2023-03-21T05:51:35;8.60;15.50
516;DHT22;244;48.508;9.052;2023-03-21T05:54:02;8.60;15.50
516;DHT22;244;48.508;9.052;2023-03-21T05:56:31;8.70;15.50
516;DHT22;244;48.508;9.052;2023-03-21T05:58:57;8.70;15.50
516;DHT22;244;48.508;9.052;2023-03-21T06:01:24;8.70;15.60
516;DHT22;244;48.508;9.052;2023-03-21T06:03:51;8.70;15.50
516;DHT22;244;48.508;9.052;2023-03-21T06:06:18;8.80;15.60
516;DHT22;244;48.508;9.052;2023-03-21T06:08:45;8.80;15.60
516;DHT22;244;48.508;9.052;2023-03-21T06:11:19;8.90;15.60
516;DHT22;244;48.508;9.052;2023-03-21T06:13:49;8.90;15.50
516;DHT22;244;48.508;9.052;2023-03-21T06:16:16;8.90;15.40
516;DHT22;244;48.508;9.052;2023-03-21T06:18:43;9.00;15.40
516;DHT22;244;48.508;9.052;2023-03-21T06:21:10;9.00;15.30
516;DHT22;244;48.508;9.052;2023-03-21T06:23:37;9.10;15.30
516;DHT22;244;48.508;9.052;2023-03-21T06:26:04;9.20;15.10
516;DHT22;244;48.508;9.052;2023-03-21T06:28:31;9.30;15.20
516;DHT22;244;48.508;9.052;2023-03-21T06:30:59;9.40;15.20
516;DHT22;244;48.508;9.052;2023-03-21T06:33:27;9.50;15.30
516;DHT22;244;48.508;9.052;2023-03-21T06:35:55;9.50;15.30
516;DHT22;244;48.508;9.052;2023-03-21T06:38:22;9.60;15.90
516;DHT22;244;48.508;9.052;2023-03-21T06:40:49;9.60;16.00
516;DHT22;244;48.508;9.052;2023-03-21T06:43:16;9.60;15.30
516;DHT22;244;48.508;9.052;2023-03-21T06:45:43;9.60;15.30
516;DHT22;244;48.508;9.052;2023-03-21T06:48:12;9.60;15.30
516;DHT22;244;48.508;9.052;2023-03-21T06:50:39;9.60;15.50
516;DHT22;244;48.508;9.052;2023-03-21T06:53:06;9.70;15.40
516;DHT22;244;48.508;9.052;2023-03-21T06:55:32;9.70;16.00
516;DHT22;244;48.508;9.052;2023-03-21T06:58:00;9.70;15.40
516;DHT22;244;48.508;9.052;2023-03-21T07:00:27;9.70;15.40
516;DHT22;244;48.508;9.052;2023-03-21T07:02:54;9.80;15.50
516;DHT22;244;48.508;9.052;2023-03-21T07:05:22;9.80;15.50
516;DHT22;244;48.508;9.052;2023-03-21T07:07:49;9.80;15.50
516;DHT22;244;48.508;9.052;2023-03-21T07:10:16;9.90;15.40
516;DHT22;244;48.508;9.052;2023-03-21T07:12:43;9.90;15.40
516;DHT22;244;48.508;9.052;2023-03-21T07:15:10;10.00;14.70
516;DHT22;244;48.508;9.052;2023-03-21T07:17:37;10.00;14.60
516;DHT22;244;48.508;9.052;2023-03-21T07:20:05;10.00;14.50
516;DHT22;244;48.508;9.052;2023-03-21T07:22:34;10.10;14.50
516;DHT22;244;48.508;9.052;2023-03-21T07:25:01;10.10;14.50
516;DHT22;244;48.508;9.052;2023-03-21T07:27:28;10.20;14.50
516;DHT22;244;48.508;9.052;2023-03-21T07:29:55;10.30;14.50
516;DHT22;244;48.508;9.052;2023-03-21T07:32:22;10.30;14.50
516;DHT22;244;48.508;9.052;2023-03-21T07:34:48;10.40;14.40
516;DHT22;244;48.508;9.052;2023-03-21T07:37:15;10.50;14.30
516;DHT22;244;48.508;9.052;2023-03-21T07:39:44;10.70;14.20
516;DHT22;244;48.508;9.052;2023-03-21T07:42:10;10.80;14.70
516;DHT22;244;48.508;9.052;2023-03-21T07:44:37;10.90;14.10
516;DHT22;244;48.508;9.052;2023-03-21T07:47:05;11.10;14.00
516;DHT22;244;48.508;9.052;2023-03-21T07:49:32;11.20;13.90
516;DHT22;244;48.508;9.052;2023-03-21T07:51:59;11.40;13.70
516;DHT22;244;48.508;9.052;2023-03-21T07:54:26;11.50;13.50
516;DHT22;244;48.508;9.052;2023-03-21T07:56:55;11.70;14.10
516;DHT22;244;48.508;9.052;2023-03-21T07:59:22;11.90;13.40
516;DHT22;244;48.508;9.052;2023-03-21T08:01:49;12.10;13.40
516;DHT22;244;48.508;9.052;2023-03-21T08:04:16;12.20;13.20
516;DHT22;244;48.508;9.052;2023-03-21T08:06:43;12.30;13.10
516;DHT22;244;48.508;9.052;2023-03-21T08:09:10;12.30;12.90
516;DHT22;244;48.508;9.052;2023-03-21T08:11:37;12.40;12.80
516;DHT22;244;48.508;9.052;2023-03-21T08:14:05;12.40;12.70
516;DHT22;244;48.508;9.052;2023-03-21T08:16:32;12.40;12.50
516;DHT22;244;48.508;9.052;2023-03-21T08:18:59;12.50;12.40
516;DHT22;244;48.508;9.052;2023-03-21T08:21:25;12.50;12.10
516;DHT22;244;48.508;9.052;2023-03-21T08:23:52;12.60;12.20
516;DHT22;244;48.508;9.052;2023-03-21T08:26:19;12.60;12.10
516;DHT22;244;48.508;9.052;2023-03-21T08:28:50;12.60;12.00
516;DHT22;244;48.508;9.052;2023-03-21T08:31:18;12.70;12.00
516;DHT22;244;48.508;9.052;2023-03-21T08:33:46;12.70;12.00
516;DHT22;244;48.508;9.052;2023-03-21T08:36:15;12.90;12.60
516;DHT22;244;48.508;9.052;2023-03-21T08:38:42;13.00;11.80
516;DHT22;244;48.508;9.052;2023-03-21T08:41:10;13.10;11.80
516;DHT22;244;48.508;9.052;2023-03-21T08:43:37;13.20;11.70
516;DHT22;244;48.508;9.052;2023-03-21T08:46:05;13.30;11.60
516;DHT22;244;48.508;9.052;2023-03-21T08:48:33;13.40;11.50
516;DHT22;244;48.508;9.052;2023-03-21T08:51:03;13.50;11.50
516;DHT22;244;48.508;9.052;2023-03-21T08:53:31;13.60;11.90
516;DHT22;244;48.508;9.052;2023-03-21T08:55:58;13.70;10.90
516;DHT22;244;48.508;9.052;2023-03-21T08:58:25;13.90;11.50
516;DHT22;244;48.508;9.052;2023-03-21T09:00:52;14.00;10.70
516;DHT22;244;48.508;9.052;2023-03-21T09:03:19;14.10;10.50
516;DHT22;244;48.508;9.052;2023-03-21T09:05:47;14.30;10.50
516;DHT22;244;48.508;9.052;2023-03-21T09:08:14;14.40;10.20
516;DHT22;244;48.508;9.052;2023-03-21T09:10:41;14.50;9.90
516;DHT22;244;48.508;9.052;2023-03-21T09:13:08;14.60;9.80
516;DHT22;244;48.508;9.052;2023-03-21T09:15:35;14.70;9.80
516;DHT22;244;48.508;9.052;2023-03-21T09:18:02;14.80;9.20
516;DHT22;244;48.508;9.052;2023-03-21T09:20:38;14.90;8.60
516;DHT22;244;48.508;9.052;2023-03-21T09:23:06;15.00;8.60
516;DHT22;244;48.508;9.052;2023-03-21T09:25:33;15.10;8.40
516;DHT22;244;48.508;9.052;2023-03-21T09:28:01;15.20;8.40
516;DHT22;244;48.508;9.052;2023-03-21T09:30:31;15.40;8.20
516;DHT22;244;48.508;9.052;2023-03-21T09:32:59;15.50;8.00
516;DHT22;244;48.508;9.052;2023-03-21T09:35:27;15.70;7.80
516;DHT22;244;48.508;9.052;2023-03-21T09:37:54;15.80;7.60
516;DHT22;244;48.508;9.052;2023-03-21T09:40:35;16.00;7.40
516;DHT22;244;48.508;9.052;2023-03-21T09:43:13;16.30;7.10
516;DHT22;244;48.508;9.052;2023-03-21T09:45:48;16.50;6.90
516;DHT22;244;48.508;9.052;2023-03-21T09:48:21;16.70;6.40
516;DHT22;244;48.508;9.052;2023-03-21T09:50:55;16.90;6.00
516;DHT22;244;48.508;9.052;2023-03-21T09:53:25;17.10;6.00
516;DHT22;244;48.508;9.052;2023-03-21T09:55:56;17.30;5.70
516;DHT22;244;48.508;9.052;2023-03-21T09:58:26;17.40;5.50
516;DHT22;244;48.508;9.052;2023-03-21T10:00:58;17.50;5.40
516;DHT22;244;48.508;9.052;2023-03-21T10:03:29;17.70;5.90
516;DHT22;244;48.508;9.052;2023-03-21T10:06:02;17.80;4.90
516;DHT22;244;48.508;9.052;2023-03-21T10:08:33;18.00;4.50
516;DHT22;244;48.508;9.052;2023-03-21T10:11:08;18.10;4.20
516;DHT22;244;48.508;9.052;2023-03-21T10:13:41;18.20;3.10
516;DHT22;244;48.508;9.052;2023-03-21T10:16:13;18.20;3.30
516;DHT22;244;48.508;9.052;2023-03-21T10:18:42;18.30;3.30
516;DHT22;244;48.508;9.052;2023-03-21T10:21:16;18.30;3.00
516;DHT22;244;48.508;9.052;2023-03-21T10:23:45;18.40;3.00
516;DHT22;244;48.508;9.052;2023-03-21T10:26:13;18.60;2.90
516;DHT22;244;48.508;9.052;2023-03-21T10:28:41;18.70;2.60
516;DHT22;244;48.508;9.052;2023-03-21T10:31:10;18.90;2.80
516;DHT22;244;48.508;9.052;2023-03-21T10:33:43;19.00;2.80
516;DHT22;244;48.508;9.052;2023-03-21T10:36:14;19.10;2.50
516;DHT22;244;48.508;9.052;2023-03-21T10:38:45;19.20;2.20
516;DHT22;244;48.508;9.052;2023-03-21T10:41:14;19.40;2.20
516;DHT22;244;48.508;9.052;2023-03-21T10:43:42;19.50;2.00
516;DHT22;244;48.508;9.052;2023-03-21T10:46:12;19.70;1.70
516;DHT22;244;48.508;9.052;2023-03-21T10:48:42;19.70;1.50
516;DHT22;244;48.508;9.052;2023-03-21T10:51:15;19.80;1.20
516;DHT22;244;48.508;9.052;2023-03-21T10:53:46;19.80;1.00
516;DHT22;244;48.508;9.052;2023-03-21T10:56:17;19.90;1.00
516;DHT22;244;48.508;9.052;2023-03-21T10:58:45;20.00;1.00
516;DHT22;244;48.508;9.052;2023-03-21T11:01:16;20.10;1.00
516;DHT22;244;48.508;9.052;2023-03-21T11:03:55;20.20;1.00
516;DHT22;244;48.508;9.052;2023-03-21T11:06:27;20.30;1.00
516;DHT22;244;48.508;9.052;2023-03-21T11:08:57;20.40;1.00
516;DHT22;244;48.508;9.052;2023-03-21T11:11:32;20.40;1.00
516;DHT22;244;48.508;9.052;2023-03-21T11:14:00;20.40;1.00
516;DHT22;244;48.508;9.052;2023-03-21T11:16:36;20.30;1.00
516;DHT22;244;48.508;9.052;2023-03-21T11:19:12;20.30;1.00
516;DHT22;244;48.508;9.052;2023-03-21T11:21:40;20.30;1.00
516;DHT22;244;48.508;9.052;2023-03-21T11:24:12;20.30;1.00
516;DHT22;244;48.508;9.052;2023-03-21T11:26:42;20.40;1.00
516;DHT22;244;48.508;9.052;2023-03-21T11:29:22;20.40;1.00
516;DHT22;244;48.508;9.052;2023-03-21T11:31:51;20.30;1.00
516;DHT22;244;48.508;9.052;2023-03-21T11:34:26;20.20;1.00
516;DHT22;244;48.508;9.052;2023-03-21T11:36:58;20.20;1.00
516;DHT22;244;48.508;9.052;2023-03-21T11:39:36;20.20;1.00
516;DHT22;244;48.508;9.052;2023-03-21T11:42:27;20.20;1.00
516;DHT22;244;48.508;9.052;2023-03-21T11:45:00;20.30;1.00
516;DHT22;244;48.508;9.052;2023-03-21T11:47:28;20.20;1.00
516;DHT22;244;48.508;9.052;2023-03-21T11:49:56;20.20;1.00
516;DHT22;244;48.508;9.052;2023-03-21T11:52:30;20.10;1.00
516;DHT22;244;48.508;9.052;2023-03-21T11:55:19;20.10;1.00
516;DHT22;244;48.508;9.052;2023-03-21T11:57:57;20.00;1.00
516;DHT22;244;48.508;9.052;2023-03-21T12:00:32;20.10;1.00
516;DHT22;244;48.508;9.052;2023-03-21T12:03:29;20.20;1.00
516;DHT22;244;48.508;9.052;2023-03-21T12:06:02;20.30;1.00
516;DHT22;244;48.508;9.052;2023-03-21T12:08:36;20.40;1.00
516;DHT22;244;48.508;9.052;2023-03-21T12:11:13;20.40;1.00
516;DHT22;244;48.508;9.052;2023-03-21T12:13:50;20.50;1.00
516;DHT22;244;48.508;9.052;2023-03-21T12:16:35;20.50;1.00
516;DHT22;244;48.508;9.052;2023-03-21T12:19:16;20.50;1.00
516;DHT22;244;48.508;9.052;2023-03-21T12:21:53;20.50;1.00
516;DHT22;244;48.508;9.052;2023-03-21T12:24:27;20.60;1.00
516;DHT22;244;48.508;9.052;2023-03-21T12:26:59;20.50;1.00
516;DHT22;244;48.508;9.052;2023-03-21T12:29:36;20.40;1.00
516;DHT22;244;48.508;9.052;2023-03-21T12:32:15;20.40;1.00
516;DHT22;244;48.508;9.052;2023-03-21T12:34:57;20.50;1.00
516;DHT22;244;48.508;9.052;2023-03-21T12:37:32;20.40;1.00
516;DHT22;244;48.508;9.052;2023-03-21T12:40:09;20.40;1.00
516;DHT22;244;48.508;9.052;2023-03-21T12:43:01;20.40;1.00
516;DHT22;244;48.508;9.052;2023-03-21T12:45:35;20.50;1.00
516;DHT22;244;48.508;9.052;2023-03-21T12:48:16;20.60;1.00
516;DHT22;244;48.508;9.052;2023-03-21T12:50:44;20.90;1.00
516;DHT22;244;48.508;9.052;2023-03-21T12:53:28;21.00;1.00
516;DHT22;244;48.508;9.052;2023-03-21T12:55:59;21.10;1.00
516;DHT22;244;48.508;9.052;2023-03-21T12:58:28;21.30;1.00
516;DHT22;244;48.508;9.052;2023-03-21T13:01:00;21.50;1.00
516;DHT22;244;48.508;9.052;2023-03-21T13:03:32;21.60;1.00
516;DHT22;244;48.508;9.052;2023-03-21T13:06:04;21.70;1.00
516;DHT22;244;48.508;9.052;2023-03-21T13:08:34;21.90;1.00
516;DHT22;244;48.508;9.052;2023-03-21T13:11:04;22.00;1.00
516;DHT22;244;48.508;9.052;2023-03-21T13:13:35;22.20;1.00
516;DHT22;244;48.508;9.052;2023-03-21T13:16:09;22.30;1.00
516;DHT22;244;48.508;9.052;2023-03-21T13:18:56;22.50;1.00
516;DHT22;244;48.508;9.052;2023-03-21T13:21:34;22.60;1.00
516;DHT22;244;48.508;9.052;2023-03-21T13:24:14;22.60;1.00
516;DHT22;244;48.508;9.052;2023-03-21T13:26:47;22.70;1.00
516;DHT22;244;48.508;9.052;2023-03-21T13:29:22;22.70;1.00
516;DHT22;244;48.508;9.052;2023-03-21T13:31:52;22.70;1.00
516;DHT22;244;48.508;9.052;2023-03-21T13:34:20;22.80;1.00
516;DHT22;244;48.508;9.052;2023-03-21T13:36:49;22.90;1.00
516;DHT22;244;48.508;9.052;2023-03-21T13:39:18;23.00;1.00
516;DHT22;244;48.508;9.052;2023-03-21T13:41:47;23.00;1.00
516;DHT22;244;48.508;9.052;2023-03-21T13:44:30;23.00;1.00
516;DHT22;244;48.508;9.052;2023-03-21T13:47:01;22.90;1.00
516;DHT22;244;48.508;9.052;2023-03-21T13:49:32;22.80;1.00
516;DHT22;244;48.508;9.052;2023-03-21T13:52:00;22.70;1.00
516;DHT22;244;48.508;9.052;2023-03-21T13:54:43;22.70;1.00
516;DHT22;244;48.508;9.052;2023-03-21T13:57:37;22.60;1.00
516;DHT22;244;48.508;9.052;2023-03-21T14:00:19;22.60;1.00
516;DHT22;244;48.508;9.052;2023-03-21T14:03:08;22.50;1.00
516;DHT22;244;48.508;9.052;2023-03-21T14:05:38;22.40;1.00
516;DHT22;244;48.508;9.052;2023-03-21T14:08:07;22.30;1.00
516;DHT22;244;48.508;9.052;2023-03-21T14:10:37;22.20;1.00
516;DHT22;244;48.508;9.052;2023-03-21T14:13:07;22.00;1.00
516;DHT22;244;48.508;9.052;2023-03-21T14:15:38;21.80;1.00
516;DHT22;244;48.508;9.052;2023-03-21T14:18:14;21.70;1.00
516;DHT22;244;48.508;9.052;2023-03-21T14:20:41;21.50;1.00
516;DHT22;244;48.508;9.052;2023-03-21T14:23:13;21.50;1.00
516;DHT22;244;48.508;9.052;2023-03-21T14:25:42;21.50;1.00
516;DHT22;244;48.508;9.052;2023-03-21T14:28:13;21.50;1.00
516;DHT22;244;48.508;9.052;2023-03-21T14:30:41;21.60;1.00
516;DHT22;244;48.508;9.052;2023-03-21T14:33:19;21.60;1.00
516;DHT22;244;48.508;9.052;2023-03-21T14:35:48;21.60;1.00
516;DHT22;244;48.508;9.052;2023-03-21T14:38:20;21.70;1.00
516;DHT22;244;48.508;9.052;2023-03-21T14:40:48;21.60;1.00
516;DHT22;244;48.508;9.052;2023-03-21T14:43:18;21.60;1.00
516;DHT22;244;48.508;9.052;2023-03-21T14:45:47;21.50;1.00
516;DHT22;244;48.508;9.052;2023-03-21T14:48:16;21.50;1.00
516;DHT22;244;48.508;9.052;2023-03-21T14:50:45;21.40;1.00
516;DHT22;244;48.508;9.052;2023-03-21T14:53:15;21.30;1.00
516;DHT22;244;48.508;9.052;2023-03-21T14:55:46;21.30;1.00
516;DHT22;244;48.508;9.052;2023-03-21T14:58:15;21.20;1.00
516;DHT22;244;48.508;9.052;2023-03-21T15:00:42;21.20;1.00
516;DHT22;244;48.508;9.052;2023-03-21T15:03:11;21.10;1.00
516;DHT22;244;48.508;9.052;2023-03-21T15:05:42;21.10;1.00
516;DHT22;244;48.508;9.052;2023-03-21T15:08:13;21.10;1.00
516;DHT22;244;48.508;9.052;2023-03-21T15:10:41;21.10;1.00
516;DHT22;244;48.508;9.052;2023-03-21T15:13:17;21.10;1.00
516;DHT22;244;48.508;9.052;2023-03-21T15:15:45;21.00;1.00
516;DHT22;244;48.508;9.052;2023-03-21T15:18:17;20.90;1.00
516;DHT22;244;48.508;9.052;2023-03-21T15:20:49;20.80;1.00
516;DHT22;244;48.508;9.052;2023-03-21T15:23:24;20.80;1.00
516;DHT22;244;48.508;9.052;2023-03-21T15:25:53;20.70;1.00
516;DHT22;244;48.508;9.052;2023-03-21T15:28:20;20.70;1.00
516;DHT22;244;48.508;9.052;2023-03-21T15:30:48;20.60;1.00
516;DHT22;244;48.508;9.052;2023-03-21T15:33:16;20.50;1.00
516;DHT22;244;48.508;9.052;2023-03-21T15:35:48;20.40;1.00
516;DHT22;244;48.508;9.052;2023-03-21T15:38:23;20.30;1.00
516;DHT22;244;48.508;9.052;2023-03-21T15:41:12;20.30;1.00
516;DHT22;244;48.508;9.052;2023-03-21T15:43:39;20.20;1.00
516;DHT22;244;48.508;9.052;2023-03-21T15:46:12;20.10;1.00
516;DHT22;244;48.508;9.052;2023-03-21T15:48:39;20.00;1.00
516;DHT22;244;48.508;9.052;2023-03-21T15:51:13;19.90;1.00
516;DHT22;244;48.508;9.052;2023-03-21T15:53:42;19.80;1.00
516;DHT22;244;48.508;9.052;2023-03-21T15:56:10;19.70;1.00
516;DHT22;244;48.508;9.052;2023-03-21T15:58:43;19.60;1.00
516;DHT22;244;48.508;9.052;2023-03-21T16:01:15;19.50;1.00
516;DHT22;244;48.508;9.052;2023-03-21T16:03:44;19.50;1.00
516;DHT22;244;48.508;9.052;2023-03-21T16:06:18;19.50;1.00
516;DHT22;244;48.508;9.052;2023-03-21T16:08:48;19.50;1.00
516;DHT22;244;48.508;9.052;2023-03-21T16:11:18;19.50;1.00
516;DHT22;244;48.508;9.052;2023-03-21T16:13:46;19.50;1.00
516;DHT22;244;48.508;9.052;2023-03-21T16:16:15;19.50;1.00
516;DHT22;244;48.508;9.052;2023-03-21T16:18:43;19.50;1.00
516;DHT22;244;48.508;9.052;2023-03-21T16:21:11;19.40;1.00
516;DHT22;244;48.508;9.052;2023-03-21T16:23:40;19.30;1.00
516;DHT22;244;48.508;9.052;2023-03-21T16:26:10;19.20;1.00
516;DHT22;244;48.508;9.052;2023-03-21T16:28:38;19.10;1.00
516;DHT22;244;48.508;9.052;2023-03-21T16:31:08;19.00;1.00
516;DHT22;244;48.508;9.052;2023-03-21T16:33:35;18.90;1.00
516;DHT22;244;48.508;9.052;2023-03-21T16:36:02;18.70;1.00
516;DHT22;244;48.508;9.052;2023-03-21T16:38:32;18.60;1.00
516;DHT22;244;48.508;9.052;2023-03-21T16:41:00;18.60;1.00
516;DHT22;244;48.508;9.052;2023-03-21T16:43:28;18.50;1.00
516;DHT22;244;48.508;9.052;2023-03-21T16:45:55;18.40;1.00
516;DHT22;244;48.508;9.052;2023-03-21T16:48:22;18.30;1.00
516;DHT22;244;48.508;9.052;2023-03-21T16:50:49;18.20;1.00
516;DHT22;244;48.508;9.052;2023-03-21T16:53:16;18.10;1.00
516;DHT22;244;48.508;9.052;2023-03-21T16:55:43;18.00;1.00
516;DHT22;244;48.508;9.052;2023-03-21T16:58:13;17.90;1.00
516;DHT22;244;48.508;9.052;2023-03-21T17:00:41;17.80;1.00
516;DHT22;244;48.508;9.052;2023-03-21T17:03:13;17.80;1.00
516;DHT22;244;48.508;9.052;2023-03-21T17:05:42;17.70;1.00
516;DHT22;244;48.508;9.052;2023-03-21T17:08:14;17.60;1.00
516;DHT22;244;48.508;9.052;2023-03-21T17:10:41;17.50;1.00
516;DHT22;244;48.508;9.052;2023-03-21T17:13:09;17.50;1.00
516;DHT22;244;48.508;9.052;2023-03-21T17:15:37;17.40;1.00